sensor_id;sensor_type;location;lat;lon;timestamp;pressure;altitude;pressure_sealevel;temperature;humidity
72961;BME280;61141;46.204;19.774;2023-02-20T00:01:48;101113.94;;;6.64;77.24
72961;BME280;61141;46.204;19.774;2023-02-20T00:04:52;101123.56;;;6.62;76.53
72961;BME280;61141;46.204;19.774;2023-02-20T00:07:55;101124.03;;;6.55;76.29
72961;BME280;61141;46.204;19.774;2023-02-20T00:10:58;101121.50;;;6.41;76.39
72961;BME280;61141;46.204;19.774;2023-02-20T00:14:02;101134.00;;;6.42;76.77
72961;BME280;61141;46.204;19.774;2023-02-20T00:17:05;101137.81;;;6.41;76.44
72961;BME280;61141;46.204;19.774;2023-02-20T00:20:08;101152.72;;;6.35;76.56
72961;BME280;61141;46.204;19.774;2023-02-20T00:23:12;101167.44;;;6.34;75.96
72961;BME280;61141;46.204;19.774;2023-02-20T00:26:15;101151.13;;;6.34;74.40
72961;BME280;61141;46.204;19.774;2023-02-20T00:29:20;101176.91;;;6.37;74.94
72961;BME280;61141;46.204;19.774;2023-02-20T00:32:23;101186.16;;;6.36;75.09
72961;BME280;61141;46.204;19.774;2023-02-20T00:35:27;101187.13;;;6.40;74.71
72961;BME280;61141;46.204;19.774;2023-02-20T00:38:30;101180.56;;;6.32;74.71
72961;BME280;61141;46.204;19.774;2023-02-20T00:41:35;101202.97;;;6.38;74.79
72961;BME280;61141;46.204;19.774;2023-02-20T00:44:38;101217.06;;;6.31;75.05
72961;BME280;61141;46.204;19.774;2023-02-20T00:47:41;101214.66;;;6.13;75.79
72961;BME280;61141;46.204;19.774;2023-02-20T00:50:44;101218.16;;;6.13;75.25
72961;BME280;61141;46.204;19.774;2023-02-20T00:53:48;101200.69;;;5.97;75.47
72961;BME280;61141;46.204;19.774;2023-02-20T00:56:51;101226.81;;;6.24;74.76
72961;BME280;61141;46.204;19.774;2023-02-20T00:59:54;101224.38;;;6.05;74.75
72961;BME280;61141;46.204;19.774;2023-02-20T01:02:57;101225.97;;;6.06;74.41
72961;BME280;61141;46.204;19.774;2023-02-20T01:06:00;101219.69;;;5.88;74.72
72961;BME280;61141;46.204;19.774;2023-02-20T01:09:03;101246.00;;;6.10;73.71
72961;BME280;61141;46.204;19.774;2023-02-20T01:12:06;101253.63;;;6.00;74.53
72961;BME280;61141;46.204;19.774;2023-02-20T01:15:11;101246.72;;;5.85;74.30
72961;BME280;61141;46.204;19.774;2023-02-20T01:18:14;101236.09;;;5.75;74.20
72961;BME280;61141;46.204;19.774;2023-02-20T01:21:17;101266.63;;;5.72;74.18
72961;BME280;61141;46.204;19.774;2023-02-20T01:24:20;101256.56;;;5.72;73.89
72961;BME280;61141;46.204;19.774;2023-02-20T01:27:23;101249.44;;;5.85;74.12
72961;BME280;61141;46.204;19.774;2023-02-20T01:30:28;101243.78;;;5.73;74.30
72961;BME280;61141;46.204;19.774;2023-02-20T01:33:30;101248.75;;;5.79;73.83
72961;BME280;61141;46.204;19.774;2023-02-20T01:36:33;101242.88;;;5.86;73.83
72961;BME280;61141;46.204;19.774;2023-02-20T01:39:36;101244.22;;;5.58;74.33
72961;BME280;61141;46.204;19.774;2023-02-20T01:42:39;101237.78;;;5.54;73.98
72961;BME280;61141;46.204;19.774;2023-02-20T01:45:42;101209.75;;;5.45;73.89
72961;BME280;61141;46.204;19.774;2023-02-20T01:48:45;101213.47;;;5.49;73.50
72961;BME280;61141;46.204;19.774;2023-02-20T01:51:55;101226.25;;;5.48;74.02
72961;BME280;61141;46.204;19.774;2023-02-20T01:55:25;101244.59;;;5.43;73.60
72961;BME280;61141;46.204;19.774;2023-02-20T01:58:40;101242.66;;;5.34;73.79
72961;BME280;61141;46.204;19.774;2023-02-20T02:01:45;101252.41;;;5.36;73.62
72961;BME280;61141;46.204;19.774;2023-02-20T02:04:50;101237.03;;;5.31;73.86
72961;BME280;61141;46.204;19.774;2023-02-20T02:07:53;101231.88;;;5.52;73.47
72961;BME280;61141;46.204;19.774;2023-02-20T02:14:08;101246.19;;;5.35;72.91
72961;BME280;61141;46.204;19.774;2023-02-20T02:21:08;101249.69;;;5.05;73.90
72961;BME280;61141;46.204;19.774;2023-02-20T02:31:55;101258.72;;;5.00;73.77
72961;BME280;61141;46.204;19.774;2023-02-20T02:45:00;101281.44;;;5.04;73.73
72961;BME280;61141;46.204;19.774;2023-02-20T02:48:27;101287.84;;;5.08;73.15
72961;BME280;61141;46.204;19.774;2023-02-20T02:51:37;101278.47;;;5.14;73.00
72961;BME280;61141;46.204;19.774;2023-02-20T02:54:40;101288.50;;;5.05;72.86
72961;BME280;61141;46.204;19.774;2023-02-20T02:57:44;101291.31;;;5.22;72.09
72961;BME280;61141;46.204;19.774;2023-02-20T03:00:55;101297.87;;;5.21;72.65
72961;BME280;61141;46.204;19.774;2023-02-20T03:04:02;101310.09;;;5.10;72.49
72961;BME280;61141;46.204;19.774;2023-02-20T03:07:10;101313.97;;;4.96;72.95
72961;BME280;61141;46.204;19.774;2023-02-20T03:10:22;101326.44;;;4.97;73.10
72961;BME280;61141;46.204;19.774;2023-02-20T03:13:39;101334.63;;;4.83;73.44
72961;BME280;61141;46.204;19.774;2023-02-20T03:17:14;101335.59;;;4.87;74.33
72961;BME280;61141;46.204;19.774;2023-02-20T03:20:22;101332.81;;;4.79;74.26
72961;BME280;61141;46.204;19.774;2023-02-20T03:23:31;101349.88;;;4.93;74.58
72961;BME280;61141;46.204;19.774;2023-02-20T03:26:36;101355.41;;;4.88;74.67
72961;BME280;61141;46.204;19.774;2023-02-20T03:29:42;101341.34;;;4.86;74.09
72961;BME280;61141;46.204;19.774;2023-02-20T03:32:47;101328.53;;;4.64;74.09
72961;BME280;61141;46.204;19.774;2023-02-20T03:36:13;101338.16;;;4.70;74.30
72961;BME280;61141;46.204;19.774;2023-02-20T03:39:43;101349.91;;;4.79;74.88
72961;BME280;61141;46.204;19.774;2023-02-20T03:43:10;101351.09;;;4.87;73.84
72961;BME280;61141;46.204;19.774;2023-02-20T03:46:28;101351.97;;;4.96;73.05
72961;BME280;61141;46.204;19.774;2023-02-20T03:49:38;101357.84;;;5.11;72.86
72961;BME280;61141;46.204;19.774;2023-02-20T03:52:43;101351.28;;;4.90;73.16
72961;BME280;61141;46.204;19.774;2023-02-20T03:55:47;101354.31;;;4.75;73.18
72961;BME280;61141;46.204;19.774;2023-02-20T03:58:56;101350.16;;;4.69;73.42
72961;BME280;61141;46.204;19.774;2023-02-20T04:02:07;101342.78;;;4.69;73.22
72961;BME280;61141;46.204;19.774;2023-02-20T04:05:17;101346.81;;;4.72;72.87
72961;BME280;61141;46.204;19.774;2023-02-20T04:08:34;101348.97;;;4.84;72.52
72961;BME280;61141;46.204;19.774;2023-02-20T04:11:51;101352.37;;;4.89;72.17
72961;BME280;61141;46.204;19.774;2023-02-20T04:14:57;101352.00;;;4.82;72.34
72961;BME280;61141;46.204;19.774;2023-02-20T04:18:09;101357.03;;;4.89;71.56
72961;BME280;61141;46.204;19.774;2023-02-20T04:21:25;101362.75;;;4.87;71.58
72961;BME280;61141;46.204;19.774;2023-02-20T04:24:46;101357.16;;;4.70;71.83
72961;BME280;61141;46.204;19.774;2023-02-20T04:27:50;101359.66;;;4.80;72.00
72961;BME280;61141;46.204;19.774;2023-02-20T04:30:54;101356.66;;;4.68;71.94
72961;BME280;61141;46.204;19.774;2023-02-20T04:33:58;101363.38;;;4.70;72.17
72961;BME280;61141;46.204;19.774;2023-02-20T04:40:15;101372.16;;;4.54;72.41
72961;BME280;61141;46.204;19.774;2023-02-20T04:43:19;101368.84;;;4.57;72.92
72961;BME280;61141;46.204;19.774;2023-02-20T04:46:22;101379.09;;;4.60;72.88
72961;BME280;61141;46.204;19.774;2023-02-20T04:49:25;101381.91;;;4.68;73.11
72961;BME280;61141;46.204;19.774;2023-02-20T04:52:28;101380.81;;;4.42;73.79
72961;BME280;61141;46.204;19.774;2023-02-20T04:55:31;101380.81;;;4.42;74.16
72961;BME280;61141;46.204;19.774;2023-02-20T04:58:34;101386.75;;;4.58;74.64
72961;BME280;61141;46.204;19.774;2023-02-20T05:01:39;101381.56;;;4.70;74.24
72961;BME280;61141;46.204;19.774;2023-02-20T05:04:44;101383.38;;;4.88;73.60
72961;BME280;61141;46.204;19.774;2023-02-20T05:07:48;101382.87;;;4.72;73.36
72961;BME280;61141;46.204;19.774;2023-02-20T05:10:50;101383.31;;;4.66;73.35
72961;BME280;61141;46.204;19.774;2023-02-20T05:13:53;101367.34;;;4.51;73.68
72961;BME280;61141;46.204;19.774;2023-02-20T05:16:56;101353.50;;;4.52;73.84
72961;BME280;61141;46.204;19.774;2023-02-20T05:19:59;101338.28;;;4.65;73.82
72961;BME280;61141;46.204;19.774;2023-02-20T05:23:02;101333.34;;;4.67;74.14
72961;BME280;61141;46.204;19.774;2023-02-20T05:26:09;101327.84;;;4.58;73.70
72961;BME280;61141;46.204;19.774;2023-02-20T05:29:12;101327.22;;;4.61;73.52
72961;BME280;61141;46.204;19.774;2023-02-20T05:32:16;101336.66;;;4.64;73.57
72961;BME280;61141;46.204;19.774;2023-02-20T05:35:19;101337.00;;;4.49;74.07
72961;BME280;61141;46.204;19.774;2023-02-20T05:38:22;101344.91;;;4.59;73.90
72961;BME280;61141;46.204;19.774;2023-02-20T05:41:25;101343.53;;;4.48;73.99
72961;BME280;61141;46.204;19.774;2023-02-20T05:44:28;101344.25;;;4.40;74.22
72961;BME280;61141;46.204;19.774;2023-02-20T05:47:31;101346.75;;;4.50;73.96
72961;BME280;61141;46.204;19.774;2023-02-20T05:50:34;101369.63;;;4.71;73.66
72961;BME280;61141;46.204;19.774;2023-02-20T05:53:37;101390.34;;;5.03;73.05
72961;BME280;61141;46.204;19.774;2023-02-20T05:56:43;101405.63;;;5.12;72.54
72961;BME280;61141;46.204;19.774;2023-02-20T05:59:46;101407.66;;;5.29;71.82
72961;BME280;61141;46.204;19.774;2023-02-20T06:02:49;101402.41;;;4.74;71.88
72961;BME280;61141;46.204;19.774;2023-02-20T06:05:52;101399.91;;;5.00;73.21
72961;BME280;61141;46.204;19.774;2023-02-20T06:08:57;101404.59;;;5.08;72.68
72961;BME280;61141;46.204;19.774;2023-02-20T06:12:01;101411.12;;;5.21;71.60
72961;BME280;61141;46.204;19.774;2023-02-20T06:15:03;101437.25;;;5.53;71.14
72961;BME280;61141;46.204;19.774;2023-02-20T06:18:06;101433.78;;;5.39;70.82
72961;BME280;61141;46.204;19.774;2023-02-20T06:21:10;101428.72;;;5.23;71.13
72961;BME280;61141;46.204;19.774;2023-02-20T06:24:13;101445.03;;;5.46;70.62
72961;BME280;61141;46.204;19.774;2023-02-20T06:27:16;101429.97;;;5.40;70.55
72961;BME280;61141;46.204;19.774;2023-02-20T06:30:21;101447.50;;;5.33;70.46
72961;BME280;61141;46.204;19.774;2023-02-20T06:33:24;101454.53;;;5.34;70.18
72961;BME280;61141;46.204;19.774;2023-02-20T06:36:30;101449.88;;;5.49;70.50
72961;BME280;61141;46.204;19.774;2023-02-20T06:39:33;101460.72;;;5.49;70.01
72961;BME280;61141;46.204;19.774;2023-02-20T06:42:36;101463.00;;;5.55;70.01
72961;BME280;61141;46.204;19.774;2023-02-20T06:45:39;101460.00;;;5.57;69.29
72961;BME280;61141;46.204;19.774;2023-02-20T06:48:46;101460.00;;;5.57;69.93
72961;BME280;61141;46.204;19.774;2023-02-20T06:51:52;101452.41;;;5.67;69.48
72961;BME280;61141;46.204;19.774;2023-02-20T06:54:58;101463.41;;;6.07;69.36
72961;BME280;61141;46.204;19.774;2023-02-20T06:58:01;101452.16;;;6.00;68.24
72961;BME280;61141;46.204;19.774;2023-02-20T07:01:04;101463.81;;;5.78;68.26
72961;BME280;61141;46.204;19.774;2023-02-20T07:04:18;101449.88;;;5.93;68.54
72961;BME280;61141;46.204;19.774;2023-02-20T07:07:22;101446.09;;;6.03;68.24
72961;BME280;61141;46.204;19.774;2023-02-20T07:10:26;101459.97;;;5.93;68.46
72961;BME280;61141;46.204;19.774;2023-02-20T07:13:29;101467.84;;;6.03;68.63
72961;BME280;61141;46.204;19.774;2023-02-20T07:16:32;101462.81;;;5.87;68.36
72961;BME280;61141;46.204;19.774;2023-02-20T07:19:35;101470.63;;;5.89;68.74
72961;BME280;61141;46.204;19.774;2023-02-20T07:22:37;101481.44;;;6.03;69.06
72961;BME280;61141;46.204;19.774;2023-02-20T07:25:40;101468.97;;;6.02;68.38
72961;BME280;61141;46.204;19.774;2023-02-20T07:28:43;101478.47;;;6.43;67.46
72961;BME280;61141;46.204;19.774;2023-02-20T07:31:47;101479.06;;;6.80;67.05
72961;BME280;61141;46.204;19.774;2023-02-20T07:34:51;101485.69;;;6.87;65.89
72961;BME280;61141;46.204;19.774;2023-02-20T07:38:07;101475.56;;;6.88;65.02
72961;BME280;61141;46.204;19.774;2023-02-20T07:41:10;101475.44;;;6.84;64.69
72961;BME280;61141;46.204;19.774;2023-02-20T07:44:13;101478.41;;;6.74;64.79
72961;BME280;61141;46.204;19.774;2023-02-20T07:47:16;101497.66;;;6.78;64.46
72961;BME280;61141;46.204;19.774;2023-02-20T07:50:20;101489.38;;;6.91;64.34
72961;BME280;61141;46.204;19.774;2023-02-20T07:53:23;101484.16;;;7.12;63.62
72961;BME280;61141;46.204;19.774;2023-02-20T07:56:26;101476.31;;;7.28;62.95
72961;BME280;61141;46.204;19.774;2023-02-20T07:59:28;101487.22;;;7.70;61.98
72961;BME280;61141;46.204;19.774;2023-02-20T08:02:32;101477.28;;;7.49;61.20
72961;BME280;61141;46.204;19.774;2023-02-20T08:05:34;101478.72;;;7.55;61.12
72961;BME280;61141;46.204;19.774;2023-02-20T08:08:51;101460.28;;;7.43;60.78
72961;BME280;61141;46.204;19.774;2023-02-20T08:11:55;101474.06;;;7.81;60.49
72961;BME280;61141;46.204;19.774;2023-02-20T08:15:00;101481.25;;;8.03;60.12
72961;BME280;61141;46.204;19.774;2023-02-20T08:18:03;101484.28;;;8.27;59.01
72961;BME280;61141;46.204;19.774;2023-02-20T08:21:17;101488.81;;;7.89;58.13
72961;BME280;61141;46.204;19.774;2023-02-20T08:24:26;101485.25;;;8.14;56.95
72961;BME280;61141;46.204;19.774;2023-02-20T08:27:30;101486.78;;;8.78;56.09
72961;BME280;61141;46.204;19.774;2023-02-20T08:30:34;101476.66;;;8.50;55.78
72961;BME280;61141;46.204;19.774;2023-02-20T08:33:37;101476.88;;;8.36;57.08
72961;BME280;61141;46.204;19.774;2023-02-20T08:36:40;101484.50;;;8.51;54.84
72961;BME280;61141;46.204;19.774;2023-02-20T08:39:44;101479.44;;;8.70;55.50
72961;BME280;61141;46.204;19.774;2023-02-20T08:42:50;101487.34;;;9.84;52.79
72961;BME280;61141;46.204;19.774;2023-02-20T08:45:53;101488.03;;;10.14;49.99
72961;BME280;61141;46.204;19.774;2023-02-20T08:48:56;101479.28;;;9.25;51.21
72961;BME280;61141;46.204;19.774;2023-02-20T08:51:59;101497.69;;;8.87;52.33
72961;BME280;61141;46.204;19.774;2023-02-20T08:55:02;101485.66;;;8.79;51.70
72961;BME280;61141;46.204;19.774;2023-02-20T08:58:05;101493.09;;;8.70;52.45
72961;BME280;61141;46.204;19.774;2023-02-20T09:01:08;101472.47;;;8.52;53.05
72961;BME280;61141;46.204;19.774;2023-02-20T09:04:11;101465.59;;;8.38;53.54
72961;BME280;61141;46.204;19.774;2023-02-20T09:07:14;101464.69;;;8.63;52.28
72961;BME280;61141;46.204;19.774;2023-02-20T09:10:20;101455.75;;;8.54;52.38
72961;BME280;61141;46.204;19.774;2023-02-20T09:13:24;101465.53;;;8.84;52.00
72961;BME280;61141;46.204;19.774;2023-02-20T09:16:27;101452.53;;;8.52;51.11
72961;BME280;61141;46.204;19.774;2023-02-20T09:19:31;101448.44;;;8.96;50.45
72961;BME280;61141;46.204;19.774;2023-02-20T09:22:34;101450.53;;;8.99;50.04
72961;BME280;61141;46.204;19.774;2023-02-20T09:25:38;101452.31;;;8.65;50.84
72961;BME280;61141;46.204;19.774;2023-02-20T09:28:41;101449.69;;;8.77;50.58
72961;BME280;61141;46.204;19.774;2023-02-20T09:31:44;101447.22;;;9.14;49.71
72961;BME280;61141;46.204;19.774;2023-02-20T09:34:46;101431.47;;;9.52;49.13
72961;BME280;61141;46.204;19.774;2023-02-20T09:37:50;101428.94;;;9.47;48.97
72961;BME280;61141;46.204;19.774;2023-02-20T09:40:55;101425.16;;;9.72;49.24
72961;BME280;61141;46.204;19.774;2023-02-20T09:44:06;101419.94;;;9.79;49.13
72961;BME280;61141;46.204;19.774;2023-02-20T09:47:29;101412.56;;;9.92;49.43
72961;BME280;61141;46.204;19.774;2023-02-20T09:50:52;101419.94;;;9.79;49.52
72961;BME280;61141;46.204;19.774;2023-02-20T09:54:16;101420.37;;;10.14;48.73
72961;BME280;61141;46.204;19.774;2023-02-20T09:57:25;101414.50;;;10.24;48.20
72961;BME280;61141;46.204;19.774;2023-02-20T10:00:35;101414.62;;;10.52;47.39
72961;BME280;61141;46.204;19.774;2023-02-20T10:03:53;101413.59;;;10.32;47.98
72961;BME280;61141;46.204;19.774;2023-02-20T10:10:33;101408.00;;;10.41;47.48
72961;BME280;61141;46.204;19.774;2023-02-20T10:14:04;101398.75;;;10.45;48.02
72961;BME280;61141;46.204;19.774;2023-02-20T10:23:50;101393.47;;;10.52;48.56
72961;BME280;61141;46.204;19.774;2023-02-20T10:34:07;101371.91;;;10.75;49.23
72961;BME280;61141;46.204;19.774;2023-02-20T10:37:19;101362.56;;;10.16;50.33
72961;BME280;61141;46.204;19.774;2023-02-20T10:40:32;101368.03;;;10.40;50.55
72961;BME280;61141;46.204;19.774;2023-02-20T10:47:06;101359.56;;;10.69;50.26
72961;BME280;61141;46.204;19.774;2023-02-20T10:50:31;101356.38;;;10.67;50.98
72961;BME280;61141;46.204;19.774;2023-02-20T10:53:48;101342.47;;;10.60;50.03
72961;BME280;61141;46.204;19.774;2023-02-20T10:57:02;101352.72;;;10.75;50.68
72961;BME280;61141;46.204;19.774;2023-02-20T11:00:14;101347.78;;;10.93;51.04
72961;BME280;61141;46.204;19.774;2023-02-20T11:06:44;101332.06;;;11.05;51.53
72961;BME280;61141;46.204;19.774;2023-02-20T11:09:49;101342.59;;;11.03;52.12
72961;BME280;61141;46.204;19.774;2023-02-20T11:12:56;101340.50;;;11.40;51.63
72961;BME280;61141;46.204;19.774;2023-02-20T11:16:03;101340.12;;;11.26;51.66
72961;BME280;61141;46.204;19.774;2023-02-20T11:19:27;101334.78;;;11.61;51.58
72961;BME280;61141;46.204;19.774;2023-02-20T11:22:45;101338.50;;;11.53;50.74
72961;BME280;61141;46.204;19.774;2023-02-20T11:25:48;101337.34;;;11.97;50.93
72961;BME280;61141;46.204;19.774;2023-02-20T11:29:04;101332.56;;;11.78;51.22
72961;BME280;61141;46.204;19.774;2023-02-20T11:32:37;101324.50;;;11.58;51.53
72961;BME280;61141;46.204;19.774;2023-02-20T11:35:43;101323.59;;;12.13;50.68
72961;BME280;61141;46.204;19.774;2023-02-20T11:38:47;101305.03;;;11.63;51.15
72961;BME280;61141;46.204;19.774;2023-02-20T11:42:04;101299.00;;;12.01;51.19
72961;BME280;61141;46.204;19.774;2023-02-20T11:45:24;101288.97;;;12.08;50.47
72961;BME280;61141;46.204;19.774;2023-02-20T11:48:28;101300.38;;;12.10;50.44
72961;BME280;61141;46.204;19.774;2023-02-20T11:54:34;101297.87;;;12.36;49.67
72961;BME280;61141;46.204;19.774;2023-02-20T11:57:42;101288.63;;;12.45;50.21
72961;BME280;61141;46.204;19.774;2023-02-20T12:00:50;101273.03;;;11.98;51.24
72961;BME280;61141;46.204;19.774;2023-02-20T12:03:54;101274.63;;;11.99;51.66
72961;BME280;61141;46.204;19.774;2023-02-20T12:06:57;101275.59;;;11.91;52.59
72961;BME280;61141;46.204;19.774;2023-02-20T12:10:20;101283.47;;;12.08;52.58
72961;BME280;61141;46.204;19.774;2023-02-20T12:13:25;101273.03;;;11.98;53.51
72961;BME280;61141;46.204;19.774;2023-02-20T12:26:36;101242.31;;;12.27;52.09
72961;BME280;61141;46.204;19.774;2023-02-20T12:30:00;101241.69;;;12.34;52.58
72961;BME280;61141;46.204;19.774;2023-02-20T12:40:12;101227.81;;;12.46;52.17
72961;BME280;61141;46.204;19.774;2023-02-20T12:46:33;101228.03;;;12.03;53.15
72961;BME280;61141;46.204;19.774;2023-02-20T12:50:41;101230.00;;;12.21;53.28
72961;BME280;61141;46.204;19.774;2023-02-20T13:00:32;101207.22;;;12.75;52.14
72961;BME280;61141;46.204;19.774;2023-02-20T13:06:57;101186.25;;;12.67;52.72
72961;BME280;61141;46.204;19.774;2023-02-20T13:13:15;101174.03;;;12.45;54.14
72961;BME280;61141;46.204;19.774;2023-02-20T13:16:22;101161.81;;;12.43;54.85
72961;BME280;61141;46.204;19.774;2023-02-20T13:22:57;101143.84;;;12.49;55.33
72961;BME280;61141;46.204;19.774;2023-02-20T13:26:01;101141.19;;;12.52;55.85
72961;BME280;61141;46.204;19.774;2023-02-20T13:29:14;101131.56;;;12.62;55.61
72961;BME280;61141;46.204;19.774;2023-02-20T13:38:35;101099.84;;;12.68;55.71
72961;BME280;61141;46.204;19.774;2023-02-20T13:44:55;101106.25;;;12.53;56.73
72961;BME280;61141;46.204;19.774;2023-02-20T13:51:33;101103.59;;;12.79;55.57
72961;BME280;61141;46.204;19.774;2023-02-20T13:54:37;101098.88;;;12.79;55.80
72961;BME280;61141;46.204;19.774;2023-02-20T13:57:54;101083.72;;;12.66;56.09
72961;BME280;61141;46.204;19.774;2023-02-20T14:01:00;101081.59;;;12.56;56.31
72961;BME280;61141;46.204;19.774;2023-02-20T14:04:04;101101.28;;;12.81;55.27
72961;BME280;61141;46.204;19.774;2023-02-20T14:07:07;101084.78;;;12.81;55.18
72961;BME280;61141;46.204;19.774;2023-02-20T14:10:17;101073.06;;;12.84;55.41
72961;BME280;61141;46.204;19.774;2023-02-20T14:13:22;101072.31;;;12.87;55.09
72961;BME280;61141;46.204;19.774;2023-02-20T14:16:43;101067.97;;;12.86;55.43
72961;BME280;61141;46.204;19.774;2023-02-20T14:19:58;101064.50;;;12.89;55.39
72961;BME280;61141;46.204;19.774;2023-02-20T14:23:28;101069.03;;;13.01;55.27
72961;BME280;61141;46.204;19.774;2023-02-20T14:26:33;101066.38;;;12.85;55.72
72961;BME280;61141;46.204;19.774;2023-02-20T14:29:36;101059.34;;;12.65;56.48
72961;BME280;61141;46.204;19.774;2023-02-20T14:32:57;101074.56;;;12.59;56.50
72961;BME280;61141;46.204;19.774;2023-02-20T14:43:02;101052.22;;;12.60;56.38
72961;BME280;61141;46.204;19.774;2023-02-20T14:46:13;101042.06;;;12.42;56.90
72961;BME280;61141;46.204;19.774;2023-02-20T14:49:26;101032.94;;;12.37;57.34
72961;BME280;61141;46.204;19.774;2023-02-20T14:52:30;101038.44;;;12.37;57.69
72961;BME280;61141;46.204;19.774;2023-02-20T14:55:33;101033.63;;;12.31;57.82
72961;BME280;61141;46.204;19.774;2023-02-20T14:58:36;101033.16;;;12.48;57.07
72961;BME280;61141;46.204;19.774;2023-02-20T15:01:40;101036.06;;;12.36;57.49
72961;BME280;61141;46.204;19.774;2023-02-20T15:05:10;101021.22;;;12.41;57.63
72961;BME280;61141;46.204;19.774;2023-02-20T15:11:20;101015.72;;;12.41;57.42
72961;BME280;61141;46.204;19.774;2023-02-20T15:14:26;100999.25;;;12.41;57.61
72961;BME280;61141;46.204;19.774;2023-02-20T15:17:34;100992.34;;;12.27;57.57
72961;BME280;61141;46.204;19.774;2023-02-20T15:20:46;100978.22;;;12.06;58.82
72961;BME280;61141;46.204;19.774;2023-02-20T15:23:52;100987.53;;;12.02;59.16
72961;BME280;61141;46.204;19.774;2023-02-20T15:27:16;100980.25;;;11.90;59.81
72961;BME280;61141;46.204;19.774;2023-02-20T15:30:21;100980.81;;;11.80;60.51
72961;BME280;61141;46.204;19.774;2023-02-20T15:33:25;100985.16;;;11.81;60.49
72961;BME280;61141;46.204;19.774;2023-02-20T15:36:28;100978.78;;;11.77;60.73
72961;BME280;61141;46.204;19.774;2023-02-20T15:39:38;100995.97;;;11.74;61.13
72961;BME280;61141;46.204;19.774;2023-02-20T15:42:41;101000.19;;;11.87;59.88
72961;BME280;61141;46.204;19.774;2023-02-20T15:45:44;100985.87;;;11.78;60.30
72961;BME280;61141;46.204;19.774;2023-02-20T15:48:47;100989.19;;;11.68;60.79
72961;BME280;61141;46.204;19.774;2023-02-20T15:51:50;100981.28;;;11.66;61.32
72961;BME280;61141;46.204;19.774;2023-02-20T15:55:00;100988.31;;;11.64;61.56
72961;BME280;61141;46.204;19.774;2023-02-20T15:58:31;100979.84;;;11.53;62.09
72961;BME280;61141;46.204;19.774;2023-02-20T16:01:37;100980.19;;;11.33;62.72
72961;BME280;61141;46.204;19.774;2023-02-20T16:04:40;100969.63;;;11.15;63.25
72961;BME280;61141;46.204;19.774;2023-02-20T16:07:43;100964.97;;;11.00;63.79
72961;BME280;61141;46.204;19.774;2023-02-20T16:10:47;100966.56;;;10.86;64.37
72961;BME280;61141;46.204;19.774;2023-02-20T16:13:55;100963.22;;;10.61;64.81
72961;BME280;61141;46.204;19.774;2023-02-20T16:16:59;100983.81;;;10.55;65.15
72961;BME280;61141;46.204;19.774;2023-02-20T16:20:13;100980.91;;;10.48;65.05
72961;BME280;61141;46.204;19.774;2023-02-20T16:23:17;100980.38;;;10.42;65.00
72961;BME280;61141;46.204;19.774;2023-02-20T16:26:27;100970.13;;;10.39;64.84
72961;BME280;61141;46.204;19.774;2023-02-20T16:29:32;100966.69;;;10.42;64.51
72961;BME280;61141;46.204;19.774;2023-02-20T16:32:38;100965.34;;;10.36;64.59
72961;BME280;61141;46.204;19.774;2023-02-20T16:35:50;100956.16;;;10.29;64.84
72961;BME280;61141;46.204;19.774;2023-02-20T16:39:00;100959.44;;;10.07;65.59
72961;BME280;61141;46.204;19.774;2023-02-20T16:42:33;100949.50;;;9.86;66.15
72961;BME280;61141;46.204;19.774;2023-02-20T16:45:37;100949.31;;;9.79;66.60
72961;BME280;61141;46.204;19.774;2023-02-20T16:48:40;100949.50;;;9.86;66.25
72961;BME280;61141;46.204;19.774;2023-02-20T16:51:46;100934.12;;;9.66;66.59
72961;BME280;61141;46.204;19.774;2023-02-20T16:55:01;100932.50;;;9.65;66.49
72961;BME280;61141;46.204;19.774;2023-02-20T16:58:04;100908.63;;;9.50;66.98
72961;BME280;61141;46.204;19.774;2023-02-20T17:01:08;100933.22;;;9.62;67.15
72961;BME280;61141;46.204;19.774;2023-02-20T17:04:11;100906.22;;;9.33;67.64
72961;BME280;61141;46.204;19.774;2023-02-20T17:07:16;100931.81;;;9.40;68.08
72961;BME280;61141;46.204;19.774;2023-02-20T17:10:21;100883.75;;;9.00;68.75
72961;BME280;61141;46.204;19.774;2023-02-20T17:13:25;100922.66;;;9.09;69.33
72961;BME280;61141;46.204;19.774;2023-02-20T17:16:27;100915.75;;;8.99;69.89
72961;BME280;61141;46.204;19.774;2023-02-20T17:19:38;100911.22;;;8.79;70.89
72961;BME280;61141;46.204;19.774;2023-02-20T17:22:41;100907.69;;;8.66;71.31
72961;BME280;61141;46.204;19.774;2023-02-20T17:25:47;100907.94;;;8.61;71.55
72961;BME280;61141;46.204;19.774;2023-02-20T17:28:50;100910.66;;;8.49;72.58
72961;BME280;61141;46.204;19.774;2023-02-20T17:31:54;100902.22;;;8.54;72.72
72961;BME280;61141;46.204;19.774;2023-02-20T17:34:57;100885.88;;;8.42;73.16
72961;BME280;61141;46.204;19.774;2023-02-20T17:38:00;100892.44;;;8.29;73.86
72961;BME280;61141;46.204;19.774;2023-02-20T17:41:03;100891.44;;;8.34;73.97
72961;BME280;61141;46.204;19.774;2023-02-20T17:44:07;100887.91;;;8.33;73.92
72961;BME280;61141;46.204;19.774;2023-02-20T17:47:11;100883.34;;;8.37;73.90
72961;BME280;61141;46.204;19.774;2023-02-20T17:50:16;100862.03;;;8.18;74.05
72961;BME280;61141;46.204;19.774;2023-02-20T17:53:20;100874.44;;;8.16;74.65
72961;BME280;61141;46.204;19.774;2023-02-20T17:56:23;100886.72;;;8.22;74.54
72961;BME280;61141;46.204;19.774;2023-02-20T17:59:26;100895.91;;;8.17;74.62
72961;BME280;61141;46.204;19.774;2023-02-20T18:02:32;100878.28;;;8.03;75.46
72961;BME280;61141;46.204;19.774;2023-02-20T18:05:35;100886.03;;;8.13;75.02
72961;BME280;61141;46.204;19.774;2023-02-20T18:08:38;100881.03;;;8.03;75.78
72961;BME280;61141;46.204;19.774;2023-02-20T18:11:42;100858.75;;;8.01;75.65